M I D A S
Marine Information and Data Acquisition System
Tripno 1603 of the Zeeleeuw from 2008-09-08 06:17:00 to 2008-09-08 12:45:18
Back to CruiseResearch ActivitiesStationsMapUnderway DataData graphs

EquipmentUnitsComment
TimeDGPSUTC
LatitudeDGPSDM.mWGS84
LongitudeDGPSDM.mWGS84
HeadingGyrodeg 
SOGDGPSknotsSpeed over ground
COGDGPSdegCourse over ground
DepthEcho soundermeters200 kHz
Missing or incorrect values are displayed as -999
Navigation data collected by the RV Zeeleeuw from 2008-09-08 06:17:33 to 2008-09-08 12:58:44
                                                                                    Next 1000 lines
Time Latitude Longitude Heading SOG COG Depth
2008-09-08 06:17:43 51°13.623 2°56.048 124.7 0.1 34 10
2008-09-08 06:17:48 51°13.623 2°56.048 124.9 0.1 226 10
2008-09-08 06:17:53 51°13.623 2°56.048 124.7 0.1 68 9.9
2008-09-08 06:17:58 51°13.623 2°56.048 124 0.1 149 9.9
2008-09-08 06:18:03 51°13.623 2°56.048 123.4 0.1 196 9.9
2008-09-08 06:18:08 51°13.623 2°56.048 122.7 0.1 190 10
2008-09-08 06:18:13 51°13.623 2°56.048 121.7 0.1 195 10
2008-09-08 06:18:18 51°13.623 2°56.048 120.5 0.1 194 9.9
2008-09-08 06:18:23 51°13.623 2°56.048 119.2 0.1 195 10
2008-09-08 06:18:28 51°13.622 2°56.048 118.1 0.1 194 9.9
2008-09-08 06:18:33 51°13.622 2°56.048 116.8 0.1 196 9.9
2008-09-08 06:18:38 51°13.622 2°56.048 115.5 0.1 187 9.9
2008-09-08 06:18:43 51°13.622 2°56.048 114.3 0.1 249 9.9
2008-09-08 06:18:48 51°13.622 2°56.047 113.1 0.2 285 9.9
2008-09-08 06:18:53 51°13.622 2°56.046 112.1 0.4 296 9.9
2008-09-08 06:18:58 51°13.623 2°56.045 111.4 0.7 290 10
2008-09-08 06:19:03 51°13.623 2°56.043 111 0.9 292 9.9
2008-09-08 06:19:08 51°13.624 2°56.041 110.7 1.2 295 9.9
2008-09-08 06:19:13 51°13.625 2°56.038 110.7 1.5 295 9.7
2008-09-08 06:19:18 51°13.626 2°56.035 110.7 1.8 294 9.9
2008-09-08 06:19:23 51°13.627 2°56.031 110.7 2.1 294 10
2008-09-08 06:19:28 51°13.628 2°56.026 110.7 2.3 295 -999
2008-09-08 06:19:33 51°13.629 2°56.022 110.2 2.4 294 -999
2008-09-08 06:19:38 51°13.631 2°56.016 109.7 2.5 293 -999
2008-09-08 06:19:43 51°13.632 2°56.011 109.3 2.6 291 -999
2008-09-08 06:19:48 51°13.633 2°56.005 108.8 2.8 291 -999
2008-09-08 06:19:53 51°13.635 2°55.999 108.6 3 290 -999
2008-09-08 06:19:58 51°13.636 2°55.992 108.5 3.2 289 -999
2008-09-08 06:20:03 51°13.638 2°55.986 109 3.3 288 -999
2008-09-08 06:20:08 51°13.639 2°55.978 110 3.5 288 -999
2008-09-08 06:20:13 51°13.641 2°55.971 111.4 3.7 289 -999
2008-09-08 06:20:18 51°13.643 2°55.963 112.9 3.9 291 -999
2008-09-08 06:20:23 51°13.645 2°55.955 113.9 4.1 293 -999
2008-09-08 06:20:28 51°13.647 2°55.946 115.3 4.2 294 -999
2008-09-08 06:20:33 51°13.65 2°55.937 116.3 4.4 295 -999
2008-09-08 06:20:38 51°13.653 2°55.928 117.5 4.5 296 -999
2008-09-08 06:20:43 51°13.655 2°55.919 118.7 4.6 298 -999
2008-09-08 06:20:48 51°13.659 2°55.91 120.1 4.7 299 -999
2008-09-08 06:20:53 51°13.662 2°55.901 121.3 4.8 300 -999
2008-09-08 06:20:58 51°13.665 2°55.892 122 4.9 301 -999
2008-09-08 06:21:03 51°13.669 2°55.883 122.8 4.9 301 -999
2008-09-08 06:21:08 51°13.673 2°55.874 123.6 5 303 -999
2008-09-08 06:21:13 51°13.677 2°55.865 124.6 5.1 304 -999
2008-09-08 06:21:18 51°13.681 2°55.855 125.5 5.1 305 -999
2008-09-08 06:21:23 51°13.685 2°55.846 126.3 5.2 306 -999
2008-09-08 06:21:28 51°13.689 2°55.837 127.1 5.2 307 -999
2008-09-08 06:21:33 51°13.694 2°55.828 127.9 5.3 308 -999
2008-09-08 06:21:38 51°13.698 2°55.819 128.4 5.3 309 -999
2008-09-08 06:21:43 51°13.703 2°55.809 128.8 5.2 308 -999
2008-09-08 06:21:48 51°13.707 2°55.8 129.3 5.3 309 -999
2008-09-08 06:21:53 51°13.712 2°55.792 130.3 5.2 309 -999
2008-09-08 06:21:58 51°13.717 2°55.783 131.4 5.2 311 -999
2008-09-08 06:22:03 51°13.722 2°55.774 133 5.3 311 -999
2008-09-08 06:22:08 51°13.727 2°55.766 134.7 5.3 314 -999
2008-09-08 06:22:13 51°13.732 2°55.757 136.5 5.3 315 -999
2008-09-08 06:22:18 51°13.737 2°55.749 138.2 5.3 317 -999
2008-09-08 06:22:23 51°13.742 2°55.741 139.9 5.3 318 -999
2008-09-08 06:22:28 51°13.748 2°55.734 141.2 5.4 320 -999
2008-09-08 06:22:33 51°13.754 2°55.726 142.2 5.4 321 -999
2008-09-08 06:22:38 51°13.76 2°55.719 143.3 5.4 322 -999
2008-09-08 06:22:43 51°13.766 2°55.711 144.2 5.4 322 -999
2008-09-08 06:22:48 51°13.772 2°55.704 144.9 5.4 323 -999
2008-09-08 06:22:53 51°13.778 2°55.697 145.6 5.4 323 -999
2008-09-08 06:22:58 51°13.784 2°55.69 146.4 5.5 325 -999
2008-09-08 06:23:03 51°13.79 2°55.683 147.3 5.5 326 -999
2008-09-08 06:23:08 51°13.797 2°55.677 149.2 5.5 327 -999
2008-09-08 06:23:13 51°13.803 2°55.67 150.7 5.5 329 -999
2008-09-08 06:23:18 51°13.81 2°55.664 152.6 5.5 331 -999
2008-09-08 06:23:23 51°13.817 2°55.659 154.6 5.5 333 -999
2008-09-08 06:23:28 51°13.824 2°55.653 157.3 5.4 335 -999
2008-09-08 06:23:33 51°13.83 2°55.649 159.7 5.1 337 -999
2008-09-08 06:23:38 51°13.837 2°55.645 162 4.9 340 -999
2008-09-08 06:23:43 51°13.843 2°55.642 164.9 4.7 343 -999
2008-09-08 06:23:48 51°13.849 2°55.639 167.6 4.6 345 -999
2008-09-08 06:23:53 51°13.856 2°55.637 170.1 4.5 347 -999
2008-09-08 06:23:58 51°13.861 2°55.635 172.8 4.2 348 -999
2008-09-08 06:24:03 51°13.867 2°55.634 175.6 4.1 352 -999
2008-09-08 06:24:08 51°13.872 2°55.632 178.7 3.8 353 -999
2008-09-08 06:24:13 51°13.877 2°55.632 181.5 3.6 356 -999
2008-09-08 06:24:18 51°13.882 2°55.631 184.3 3.4 357 -999
2008-09-08 06:24:23 51°13.887 2°55.631 186.7 3.3 -999 -999
2008-09-08 06:24:28 51°13.891 2°55.631 189.3 3.1 1 -999
2008-09-08 06:24:33 51°13.895 2°55.632 191.3 3 4 12.9
2008-09-08 06:24:38 51°13.899 2°55.632 192.7 2.9 6 13
2008-09-08 06:24:43 51°13.903 2°55.633 195.1 2.7 8 13.1
2008-09-08 06:24:48 51°13.906 2°55.634 197.4 2.6 10 13.1
2008-09-08 06:24:53 51°13.91 2°55.635 199.6 2.5 12 13.2
2008-09-08 06:24:58 51°13.913 2°55.637 202 2.4 13 13.1
2008-09-08 06:25:03 51°13.916 2°55.638 204.2 2.4 16 13.2
2008-09-08 06:25:08 51°13.919 2°55.639 206.2 2.2 16 13.2
2008-09-08 06:25:13 51°13.922 2°55.641 208.3 2.1 20 12.6
2008-09-08 06:25:18 51°13.925 2°55.643 210.4 2.1 20 12.5
2008-09-08 06:25:23 51°13.928 2°55.644 212.5 2 22 13
2008-09-08 06:25:28 51°13.93 2°55.646 214.6 1.9 24 13
2008-09-08 06:25:33 51°13.933 2°55.648 216.5 1.9 25 12.9
2008-09-08 06:25:38 51°13.935 2°55.65 218.5 1.9 27 13.2
2008-09-08 06:25:43 51°13.937 2°55.651 220.4 1.8 28 12.9
2008-09-08 06:25:48 51°13.939 2°55.653 221.8 1.8 28 13
2008-09-08 06:25:53 51°13.941 2°55.655 223.4 1.7 30 13
2008-09-08 06:25:58 51°13.943 2°55.657 224.9 1.6 32 13.6
2008-09-08 06:26:03 51°13.945 2°55.659 226.4 1.6 32 13.3
2008-09-08 06:26:08 51°13.947 2°55.661 228 1.6 35 13.6
2008-09-08 06:26:13 51°13.949 2°55.663 229.2 1.6 34 13.6
2008-09-08 06:26:18 51°13.95 2°55.665 230.9 1.5 35 13.7
2008-09-08 06:26:23 51°13.952 2°55.667 232.4 1.5 36 13.6
2008-09-08 06:26:27 51°13.953 2°55.668 233.8 1.5 37 13.5
2008-09-08 06:26:32 51°13.955 2°55.67 235.4 1.4 38 13.4
2008-09-08 06:26:38 51°13.957 2°55.672 236.9 1.4 40 13.5
2008-09-08 06:26:42 51°13.958 2°55.674 238.4 1.4 40 13.5
2008-09-08 06:26:47 51°13.959 2°55.676 240.1 1.3 42 13.4
2008-09-08 06:26:52 51°13.96 2°55.678 241.7 1.3 43 13.5
2008-09-08 06:26:57 51°13.962 2°55.68 243.2 1.2 47 13.4
2008-09-08 06:27:02 51°13.963 2°55.682 245.4 1.2 46 13.2
2008-09-08 06:27:07 51°13.964 2°55.683 247.2 1.2 45 13.3
2008-09-08 06:27:12 51°13.965 2°55.685 248.9 1.1 49 13.3
2008-09-08 06:27:16 51°13.965 2°55.687 250.4 1 54 13.4
2008-09-08 06:27:22 51°13.966 2°55.689 252.6 1 51 13.4
2008-09-08 06:27:26 51°13.967 2°55.69 254.7 1 54 13.2
2008-09-08 06:27:31 51°13.968 2°55.692 256.9 1 55 13.2
2008-09-08 06:27:36 51°13.968 2°55.694 258.6 0.9 59 13.3
2008-09-08 06:27:41 51°13.969 2°55.696 261.2 0.9 59 13.3
2008-09-08 06:27:46 51°13.97 2°55.697 263.5 0.7 63 13.3
2008-09-08 06:27:51 51°13.97 2°55.698 265.5 0.6 58 13.1
2008-09-08 06:27:56 51°13.971 2°55.699 267.4 0.5 56 13
2008-09-08 06:28:01 51°13.971 2°55.7 270 0.4 57 13.1
2008-09-08 06:28:06 51°13.971 2°55.701 271.7 0.4 44 13.1
2008-09-08 06:28:11 51°13.971 2°55.701 274.3 0.3 36 13.1
2008-09-08 06:28:15 51°13.972 2°55.701 275.9 0.3 15 13.1
2008-09-08 06:28:20 51°13.972 2°55.701 278.8 0.3 359 13.1
2008-09-08 06:28:25 51°13.973 2°55.701 280.7 0.4 347 13.1
2008-09-08 06:28:30 51°13.973 2°55.701 283.8 0.4 336 13.1
2008-09-08 06:28:35 51°13.974 2°55.7 286.2 0.5 334 13
2008-09-08 06:28:40 51°13.974 2°55.7 289.7 0.5 330 13
2008-09-08 06:28:45 51°13.975 2°55.699 292.3 0.4 331 12.9
2008-09-08 06:28:50 51°13.976 2°55.699 295.5 0.5 337 13
2008-09-08 06:28:54 51°13.976 2°55.699 297.4 0.5 342 13.1
2008-09-08 06:29:00 51°13.977 2°55.698 299.9 0.4 340 13.1
2008-09-08 06:29:05 51°13.977 2°55.698 301.4 0.4 345 13.1
2008-09-08 06:29:10 51°13.978 2°55.698 303 0.4 345 13.1
2008-09-08 06:29:14 51°13.978 2°55.698 304.7 0.4 351 13.1
2008-09-08 06:29:19 51°13.978 2°55.698 306.2 0.4 351 13.2
2008-09-08 06:29:24 51°13.979 2°55.698 307.2 0.4 348 13.1
2008-09-08 06:29:30 51°13.979 2°55.697 308.4 0.4 343 13.1
2008-09-08 06:29:34 51°13.98 2°55.697 309.1 0.4 332 13.2
2008-09-08 06:29:39 51°13.98 2°55.697 309.8 0.6 326 13.1
2008-09-08 06:29:44 51°13.981 2°55.695 309.9 0.8 319 13.1
2008-09-08 06:29:50 51°13.983 2°55.694 310 1.1 318 13
2008-09-08 06:29:54 51°13.983 2°55.692 310.1 1.4 314 12.9
2008-09-08 06:29:59 51°13.985 2°55.689 310.1 2 313 12.9
2008-09-08 06:30:04 51°13.988 2°55.685 310.1 2.8 311 12.9
2008-09-08 06:30:10 51°13.991 2°55.678 309.8 3.5 310 13.2
2008-09-08 06:30:14 51°13.994 2°55.672 309.5 4.2 310 13.2
2008-09-08 06:30:19 51°13.998 2°55.664 309.4 4.7 310 13.2
2008-09-08 06:30:24 51°14.003 2°55.656 309.7 5.5 311 13.1
2008-09-08 06:30:29 51°14.008 2°55.645 309.8 6.1 309 13.1
2008-09-08 06:30:34 51°14.014 2°55.634 310.1 6.6 311 13.2
2008-09-08 06:30:39 51°14.02 2°55.623 310.4 7.1 309 13.2
2008-09-08 06:30:44 51°14.027 2°55.61 309.7 7.5 309 12.6
2008-09-08 06:30:50 51°14.035 2°55.594 309.4 7.8 309 11.3
2008-09-08 06:30:54 51°14.041 2°55.583 309.6 8.1 310 10.2
2008-09-08 06:30:59 51°14.048 2°55.569 310 8.4 309 10.1
2008-09-08 06:31:04 51°14.056 2°55.554 309.8 8.6 309 10.4
2008-09-08 06:31:09 51°14.063 2°55.539 309 8.8 308 10.8
2008-09-08 06:31:14 51°14.071 2°55.523 308.6 8.9 309 10.7
2008-09-08 06:31:19 51°14.079 2°55.508 310.1 9.1 310 12.3
2008-09-08 06:31:24 51°14.087 2°55.493 311.5 9.1 312 12.7
2008-09-08 06:31:30 51°14.098 2°55.475 312.3 9.2 312 12.9
2008-09-08 06:31:34 51°14.105 2°55.463 312.3 9.3 314 13.2
2008-09-08 06:31:39 51°14.114 2°55.448 313.7 9.4 314 13.2
2008-09-08 06:31:44 51°14.123 2°55.433 315.1 9.4 315 13.3
2008-09-08 06:31:50 51°14.134 2°55.416 316.1 9.4 317 13.3
2008-09-08 06:31:54 51°14.142 2°55.405 318 9.4 320 13.2
2008-09-08 06:31:59 51°14.153 2°55.392 320.7 9.4 322 13.3
2008-09-08 06:32:04 51°14.163 2°55.38 323.2 9.4 323 13.3
2008-09-08 06:32:10 51°14.176 2°55.365 324.3 9.5 324 13.2
2008-09-08 06:32:14 51°14.184 2°55.355 324.2 9.5 323 13.2
2008-09-08 06:32:19 51°14.195 2°55.343 324.3 9.5 324 13
2008-09-08 06:32:24 51°14.206 2°55.331 325.4 9.5 325 13
2008-09-08 06:32:30 51°14.219 2°55.316 325.8 9.5 324 12.6
2008-09-08 06:32:34 51°14.227 2°55.306 324.6 9.6 322 12.7
2008-09-08 06:32:39 51°14.237 2°55.292 322.7 9.6 320 12.9
2008-09-08 06:32:44 51°14.247 2°55.279 321.3 9.6 321 12.7
2008-09-08 06:32:49 51°14.257 2°55.265 321 9.5 319 12.5
2008-09-08 06:32:54 51°14.267 2°55.251 319.8 9.5 318 12.6
2008-09-08 06:32:59 51°14.277 2°55.236 317.7 9.5 315 12.5
2008-09-08 06:33:04 51°14.286 2°55.221 314.8 9.6 312 12.7
2008-09-08 06:33:10 51°14.296 2°55.202 313.1 9.6 312 12.5
2008-09-08 06:33:14 51°14.303 2°55.189 312.3 9.6 310 12.7
2008-09-08 06:33:19 51°14.312 2°55.173 310.8 9.6 310 12.9
2008-09-08 06:33:24 51°14.32 2°55.156 309.8 9.5 309 12.8
2008-09-08 06:33:29 51°14.328 2°55.14 309.4 9.5 308 13
2008-09-08 06:33:34 51°14.336 2°55.123 308.4 9.5 307 13.1
2008-09-08 06:33:39 51°14.343 2°55.106 307 9.5 304 13.2
2008-09-08 06:33:44 51°14.351 2°55.088 305 9.5 303 13.2
2008-09-08 06:33:50 51°14.359 2°55.067 303.3 9.5 302 13.2
2008-09-08 06:33:54 51°14.365 2°55.053 302.2 9.4 302 13.1
2008-09-08 06:33:59 51°14.371 2°55.035 301.3 9.5 300 12.9
2008-09-08 06:34:04 51°14.378 2°55.017 300.9 9.5 302 12.5
2008-09-08 06:34:10 51°14.386 2°54.996 300.5 9.4 301 12.3
2008-09-08 06:34:14 51°14.392 2°54.982 301.1 9.3 303 12.2
2008-09-08 06:34:19 51°14.399 2°54.965 301.7 9 304 12.3
2008-09-08 06:34:24 51°14.406 2°54.949 302 8.6 305 12.6
2008-09-08 06:34:30 51°14.414 2°54.931 302.1 8.4 305 12.6
2008-09-08 06:34:34 51°14.419 2°54.92 302.4 8 307 12.9
2008-09-08 06:34:39 51°14.426 2°54.906 302.8 7.7 307 12.7
2008-09-08 06:34:45 51°14.433 2°54.89 302.9 7.6 307 12.9
2008-09-08 06:34:50 51°14.439 2°54.878 302.7 7.3 307 13.1
2008-09-08 06:34:54 51°14.444 2°54.867 301.8 7.1 306 12.8
2008-09-08 06:34:59 51°14.45 2°54.855 301.7 6.9 307 12.9
2008-09-08 06:35:04 51°14.455 2°54.843 301.8 6.8 309 12.9
2008-09-08 06:35:10 51°14.462 2°54.829 301.9 6.7 309 13.1
2008-09-08 06:35:14 51°14.467 2°54.82 301.8 6.6 309 13.2
2008-09-08 06:35:19 51°14.473 2°54.809 301.9 6.4 309 13.1
2008-09-08 06:35:24 51°14.478 2°54.798 301.7 6.3 310 12.7
2008-09-08 06:35:29 51°14.484 2°54.787 301.7 6.2 311 12.8
2008-09-08 06:35:34 51°14.489 2°54.777 301.7 6.2 311 12.8
2008-09-08 06:35:39 51°14.495 2°54.767 301.8 6.2 312 12.5
2008-09-08 06:35:44 51°14.501 2°54.756 302.4 6.2 312 12.6
2008-09-08 06:35:50 51°14.508 2°54.744 302.5 6.1 312 12.8
2008-09-08 06:35:54 51°14.512 2°54.736 302.7 6 312 12.4
2008-09-08 06:35:59 51°14.518 2°54.726 302.4 6 311 12.5
2008-09-08 06:36:04 51°14.523 2°54.717 302.2 6 310 12.3
2008-09-08 06:36:10 51°14.529 2°54.705 301.1 5.9 310 12.5
2008-09-08 06:36:14 51°14.533 2°54.696 300.1 5.8 308 12.6
2008-09-08 06:36:19 51°14.538 2°54.686 298.9 5.7 307 12.1
2008-09-08 06:36:24 51°14.543 2°54.676 297.9 5.8 306 12.3
2008-09-08 06:36:30 51°14.548 2°54.663 297.1 5.8 304 12.3
2008-09-08 06:36:34 51°14.552 2°54.655 296.2 5.7 304 12.2
2008-09-08 06:36:39 51°14.556 2°54.645 295.8 5.7 303 12.3
2008-09-08 06:36:44 51°14.56 2°54.634 295.1 5.7 301 12.2
2008-09-08 06:36:50 51°14.565 2°54.621 294.6 5.7 301 12
2008-09-08 06:36:54 51°14.569 2°54.612 294.7 5.7 301 12.1
2008-09-08 06:36:59 51°14.573 2°54.602 295 5.8 303 12
2008-09-08 06:37:04 51°14.577 2°54.591 295.6 5.8 303 12.2
2008-09-08 06:37:10 51°14.583 2°54.578 296 5.8 304 12.1
2008-09-08 06:37:14 51°14.586 2°54.57 296.6 5.8 303 12.1
2008-09-08 06:37:19 51°14.591 2°54.559 297.1 5.8 305 12.2
2008-09-08 06:37:24 51°14.595 2°54.549 297.5 5.8 304 12.2
2008-09-08 06:37:30 51°14.601 2°54.536 297.7 5.9 304 12.2
2008-09-08 06:37:34 51°14.605 2°54.528 298.1 5.8 305 12.2
2008-09-08 06:37:39 51°14.609 2°54.517 297.9 5.8 305 12.2
2008-09-08 06:37:44 51°14.614 2°54.506 297.6 5.8 305 12.1
2008-09-08 06:37:49 51°14.618 2°54.496 297.2 5.8 304 12.1
2008-09-08 06:37:54 51°14.623 2°54.485 297.1 5.8 305 12.1
2008-09-08 06:37:59 51°14.627 2°54.474 297.2 5.9 303 12.2
2008-09-08 06:38:04 51°14.632 2°54.464 297.2 5.9 303 12.2
2008-09-08 06:38:10 51°14.637 2°54.451 296.9 5.8 303 12.2
2008-09-08 06:38:14 51°14.64 2°54.442 296.3 5.8 303 12.2
2008-09-08 06:38:19 51°14.645 2°54.432 296.2 5.8 303 12.2
2008-09-08 06:38:24 51°14.649 2°54.421 295.1 5.7 302 12.1
2008-09-08 06:38:30 51°14.654 2°54.408 293.7 5.7 301 12.2
2008-09-08 06:38:34 51°14.657 2°54.399 292.2 5.7 299 12.2
2008-09-08 06:38:39 51°14.661 2°54.388 291 5.7 298 12.2
2008-09-08 06:38:44 51°14.664 2°54.378 289.6 5.6 296 12.2
2008-09-08 06:38:50 51°14.668 2°54.364 287.2 5.5 293 12.3
2008-09-08 06:38:54 51°14.67 2°54.355 284.4 5.4 291 12.2
2008-09-08 06:38:59 51°14.672 2°54.344 281.6 5.3 287 12.1
2008-09-08 06:39:04 51°14.674 2°54.333 279.9 5.3 287 12.2
2008-09-08 06:39:10 51°14.676 2°54.32 277.8 5.3 284 12.2
2008-09-08 06:39:14 51°14.678 2°54.311 275.9 5.3 282 12.2
2008-09-08 06:39:19 51°14.679 2°54.299 274.8 5.2 281 12.2
2008-09-08 06:39:24 51°14.681 2°54.288 273.9 5.2 281 12.2
2008-09-08 06:39:30 51°14.682 2°54.274 272.7 5.2 280 12.2
2008-09-08 06:39:34 51°14.683 2°54.265 272 5.3 279 12.3
2008-09-08 06:39:39 51°14.684 2°54.254 271.7 5.2 279 12.5
2008-09-08 06:39:44 51°14.685 2°54.242 271.5 5.3 279 12.6
2008-09-08 06:39:49 51°14.686 2°54.231 271.4 5.3 279 12.6
2008-09-08 06:39:54 51°14.687 2°54.219 271.1 5.4 277 12.3
2008-09-08 06:39:59 51°14.688 2°54.207 271.3 5.4 278 12.4
2008-09-08 06:40:04 51°14.689 2°54.195 271.2 5.3 278 12.3
2008-09-08 06:40:09 51°14.69 2°54.184 271.1 5.3 278 12.2
2008-09-08 06:40:14 51°14.691 2°54.172 271.4 5.4 279 12.3
2008-09-08 06:40:19 51°14.692 2°54.16 271.4 5.4 278 12.3
2008-09-08 06:40:24 51°14.693 2°54.149 271.4 5.4 278 12.3
2008-09-08 06:40:30 51°14.695 2°54.134 271.8 5.4 279 12.3
2008-09-08 06:40:34 51°14.696 2°54.125 272.1 5.4 279 12.4
2008-09-08 06:40:39 51°14.697 2°54.113 272.2 5.4 280 12.3
2008-09-08 06:40:44 51°14.698 2°54.101 272.2 5.4 279 12.3
2008-09-08 06:40:50 51°14.7 2°54.087 272.2 5.4 280 12.5
2008-09-08 06:40:54 51°14.701 2°54.078 272.2 5.4 279 12.8
2008-09-08 06:40:59 51°14.702 2°54.066 272.3 5.4 280 12.6
2008-09-08 06:41:04 51°14.703 2°54.054 272.3 5.4 280 12.7
2008-09-08 06:41:10 51°14.704 2°54.04 272.4 5.4 278 12.9
2008-09-08 06:41:14 51°14.705 2°54.031 272.4 5.4 279 12.7
2008-09-08 06:41:19 51°14.706 2°54.019 272.3 5.4 278 13.1
2008-09-08 06:41:24 51°14.708 2°54.007 272.1 5.4 279 13.4
2008-09-08 06:41:30 51°14.709 2°53.993 272.1 5.4 279 13.4
2008-09-08 06:41:34 51°14.71 2°53.983 272.2 5.5 279 12.9
2008-09-08 06:41:39 51°14.711 2°53.971 272.9 5.3 278 12.9
2008-09-08 06:41:44 51°14.712 2°53.96 272.2 5.3 278 13.1
2008-09-08 06:41:50 51°14.713 2°53.945 271.5 5.3 278 13.1
2008-09-08 06:41:54 51°14.714 2°53.936 271.1 5.4 277 13
2008-09-08 06:41:59 51°14.715 2°53.924 271.1 5.4 277 12.7
2008-09-08 06:42:04 51°14.715 2°53.912 270.7 5.4 276 12.7
2008-09-08 06:42:09 51°14.716 2°53.9 270.6 5.4 278 13.1
2008-09-08 06:42:14 51°14.717 2°53.889 270.5 5.4 277 13.1
2008-09-08 06:42:19 51°14.718 2°53.877 270.5 5.4 277 12.6
2008-09-08 06:42:24 51°14.719 2°53.865 270.3 5.3 276 12.6
2008-09-08 06:42:29 51°14.72 2°53.853 269.9 5.4 276 12.5
2008-09-08 06:42:34 51°14.721 2°53.841 269.5 5.4 276 12.6
2008-09-08 06:42:39 51°14.721 2°53.829 269.4 5.5 276 12.7
2008-09-08 06:42:44 51°14.722 2°53.817 269.4 5.4 274 12.7
2008-09-08 06:42:50 51°14.722 2°53.802 269 5.4 275 12.6
2008-09-08 06:42:54 51°14.722 2°53.793 268.5 5.5 273 12.7
2008-09-08 06:42:59 51°14.723 2°53.781 268.4 5.5 273 12.2
2008-09-08 06:43:04 51°14.724 2°53.769 268.9 5.4 274 12.3
2008-09-08 06:43:10 51°14.724 2°53.754 269.8 5.5 275 12.2
2008-09-08 06:43:14 51°14.725 2°53.745 270.1 5.4 274 12.3
2008-09-08 06:43:19 51°14.726 2°53.733 269.8 5.4 275 12.2
2008-09-08 06:43:24 51°14.726 2°53.721 270 5.5 274 12.3
2008-09-08 06:43:30 51°14.727 2°53.706 269.7 5.5 275 12.2
2008-09-08 06:43:34 51°14.727 2°53.697 269.8 5.5 275 12.2
2008-09-08 06:43:39 51°14.728 2°53.685 269.5 5.5 274 12.2
2008-09-08 06:43:44 51°14.729 2°53.672 269.5 5.5 274 12
2008-09-08 06:43:50 51°14.729 2°53.658 269.2 5.5 274 12.2
2008-09-08 06:43:54 51°14.729 2°53.648 268.3 5.5 273 12.1
2008-09-08 06:43:59 51°14.73 2°53.636 267.7 5.5 273 12
2008-09-08 06:44:04 51°14.73 2°53.624 267.6 5.5 273 12.3
2008-09-08 06:44:10 51°14.731 2°53.609 267.7 5.4 273 12.3
2008-09-08 06:44:14 51°14.731 2°53.6 267.9 5.5 273 12.4
2008-09-08 06:44:19 51°14.731 2°53.587 267.7 5.5 272 12.4
2008-09-08 06:44:24 51°14.731 2°53.575 267.7 5.4 271 12.5
2008-09-08 06:44:29 51°14.732 2°53.563 267 5.4 272 12.4
2008-09-08 06:44:34 51°14.732 2°53.551 266.8 5.4 270 12.3
2008-09-08 06:44:39 51°14.732 2°53.539 267 5.5 271 12.6
2008-09-08 06:44:44 51°14.732 2°53.527 266.9 5.5 271 12.6
2008-09-08 06:44:50 51°14.732 2°53.513 266.8 5.5 271 12.3
2008-09-08 06:44:54 51°14.733 2°53.503 267 5.6 273 12.2
2008-09-08 06:44:59 51°14.733 2°53.491 267.5 5.5 272 12.6
2008-09-08 06:45:04 51°14.733 2°53.479 267.5 5.5 272 12.8
2008-09-08 06:45:10 51°14.733 2°53.464 267.4 5.6 272 12.8
2008-09-08 06:45:14 51°14.734 2°53.454 267.3 5.6 271 12.5
2008-09-08 06:45:19 51°14.734 2°53.442 267 5.5 273 12.7
2008-09-08 06:45:24 51°14.734 2°53.43 267.2 5.6 273 12.7
2008-09-08 06:45:30 51°14.735 2°53.415 267.7 5.5 271 12.1
2008-09-08 06:45:34 51°14.735 2°53.405 268 5.5 273 12
2008-09-08 06:45:39 51°14.735 2°53.393 267.9 5.5 273 12
2008-09-08 06:45:44 51°14.736 2°53.381 267.6 5.5 272 12
2008-09-08 06:45:50 51°14.736 2°53.367 267.3 5.6 272 11.8
2008-09-08 06:45:54 51°14.736 2°53.357 267.4 5.5 271 11.6
2008-09-08 06:45:59 51°14.736 2°53.345 267.9 5.5 274 11.5
2008-09-08 06:46:04 51°14.737 2°53.332 268.1 5.5 273 11.4
2008-09-08 06:46:10 51°14.737 2°53.318 268.5 5.6 274 11.3
2008-09-08 06:46:14 51°14.738 2°53.308 268.7 5.6 275 11.3
2008-09-08 06:46:19 51°14.738 2°53.295 268.8 5.5 273 11.2
2008-09-08 06:46:24 51°14.739 2°53.283 268.5 5.6 273 11.3
2008-09-08 06:46:29 51°14.739 2°53.271 268.5 5.6 273 11.3
2008-09-08 06:46:34 51°14.74 2°53.259 268.5 5.5 273 11.2
2008-09-08 06:46:39 51°14.74 2°53.246 268.5 5.6 274 11.2
2008-09-08 06:46:44 51°14.741 2°53.234 268.4 5.6 274 11.2
2008-09-08 06:46:50 51°14.741 2°53.218 268.3 5.6 273 11.2
2008-09-08 06:46:54 51°14.742 2°53.208 268.2 5.6 273 11.1
2008-09-08 06:46:59 51°14.742 2°53.196 268.6 5.5 274 11
2008-09-08 06:47:04 51°14.743 2°53.184 268.5 5.5 274 11.1
2008-09-08 06:47:09 51°14.743 2°53.172 268.5 5.5 274 11.1
2008-09-08 06:47:14 51°14.744 2°53.16 268.5 5.5 274 11
2008-09-08 06:47:19 51°14.744 2°53.148 268.6 5.6 274 11.2
2008-09-08 06:47:24 51°14.745 2°53.135 268.4 5.5 273 11.2
2008-09-08 06:47:30 51°14.745 2°53.12 268.1 5.5 274 11.2
2008-09-08 06:47:34 51°14.746 2°53.11 267.8 5.5 272 11.3
2008-09-08 06:47:39 51°14.746 2°53.098 267.8 5.4 273 11.2
2008-09-08 06:47:44 51°14.747 2°53.086 268 5.5 273 11.2
2008-09-08 06:47:50 51°14.747 2°53.071 267.9 5.5 273 11.3
2008-09-08 06:47:54 51°14.747 2°53.062 268 5.6 273 11.4
2008-09-08 06:47:59 51°14.748 2°53.049 268.3 5.5 273 11.3
2008-09-08 06:48:04 51°14.748 2°53.038 268.2 5.5 273 11.3
2008-09-08 06:48:10 51°14.749 2°53.023 268.3 5.5 272 11.4
2008-09-08 06:48:14 51°14.749 2°53.014 268.5 5.4 272 11.1
2008-09-08 06:48:19 51°14.749 2°53.002 267.6 5.4 272 11.3
2008-09-08 06:48:24 51°14.749 2°52.99 266.4 5.3 269 11.4
2008-09-08 06:48:30 51°14.749 2°52.976 265.5 5.3 269 11.3
2008-09-08 06:48:34 51°14.749 2°52.966 264 5.3 268 11.2
2008-09-08 06:48:39 51°14.748 2°52.955 262.3 5.3 265 11.3
2008-09-08 06:48:44 51°14.748 2°52.943 260.5 5.3 266 11.2
2008-09-08 06:48:50 51°14.746 2°52.93 258.3 5.2 261 11.3
2008-09-08 06:48:54 51°14.746 2°52.92 257.6 5.2 261 11.2
2008-09-08 06:48:59 51°14.744 2°52.909 256.2 5.2 261 11.2
2008-09-08 06:49:04 51°14.743 2°52.898 255.3 5.2 259 11.2
2008-09-08 06:49:09 51°14.742 2°52.887 254.5 5.2 259 11.3
2008-09-08 06:49:14 51°14.74 2°52.875 253.8 5.2 257 11.4
2008-09-08 06:49:19 51°14.739 2°52.864 253.3 5.2 257 11.3
2008-09-08 06:49:24 51°14.737 2°52.853 253 5.3 258 11.2
2008-09-08 06:49:30 51°14.735 2°52.839 252.9 5.3 257 11.3
2008-09-08 06:49:34 51°14.734 2°52.83 252.9 5.2 257 11.4
2008-09-08 06:49:39 51°14.732 2°52.819 252.6 5.3 257 11.2
2008-09-08 06:49:44 51°14.73 2°52.808 252.5 5.2 256 11.3
2008-09-08 06:49:50 51°14.728 2°52.794 252.5 5.3 254 11.6
2008-09-08 06:49:54 51°14.727 2°52.785 252.3 5.2 255 11.4
2008-09-08 06:49:59 51°14.725 2°52.774 251.8 5.3 256 11.3
2008-09-08 06:50:04 51°14.723 2°52.763 251.6 5.3 254 11.4
2008-09-08 06:50:10 51°14.721 2°52.749 251.9 5.2 255 11.3
2008-09-08 06:50:14 51°14.719 2°52.74 251.7 5.2 255 11.2
2008-09-08 06:50:19 51°14.717 2°52.729 251.9 5.2 256 11.3
2008-09-08 06:50:24 51°14.715 2°52.718 252.2 5.3 257 11.6
2008-09-08 06:50:30 51°14.713 2°52.704 252.7 5.2 255 11.4
2008-09-08 06:50:34 51°14.712 2°52.695 253.2 5.2 258 11.2
2008-09-08 06:50:39 51°14.71 2°52.684 253.3 5.3 259 11.4
2008-09-08 06:50:44 51°14.709 2°52.673 253.8 5.2 258 11.3
2008-09-08 06:50:50 51°14.707 2°52.659 254 5.2 258 11.4
2008-09-08 06:50:54 51°14.706 2°52.65 254.2 5.3 258 11.3
2008-09-08 06:50:59 51°14.704 2°52.639 254.1 5.3 258 11.4
2008-09-08 06:51:04 51°14.703 2°52.628 253.8 5.3 256 11.5
2008-09-08 06:51:09 51°14.701 2°52.616 254 5.3 258 11.3
2008-09-08 06:51:14 51°14.7 2°52.605 253.7 5.3 258 11.4
2008-09-08 06:51:19 51°14.698 2°52.593 253.6 5.3 258 11.4
2008-09-08 06:51:24 51°14.696 2°52.582 253.7 5.3 258 11.5
2008-09-08 06:51:30 51°14.694 2°52.568 253.7 5.3 257 11.4
2008-09-08 06:51:34 51°14.693 2°52.559 253.9 5.3 259 11.3
2008-09-08 06:51:39 51°14.692 2°52.548 254 5.3 257 11.4
2008-09-08 06:51:44 51°14.69 2°52.536 254 5.3 260 11.4
2008-09-08 06:51:50 51°14.688 2°52.523 254 5.2 257 11.2
2008-09-08 06:51:54 51°14.687 2°52.514 253.5 5.3 257 11.4
2008-09-08 06:51:59 51°14.685 2°52.502 253.6 5.2 255 11.4
2008-09-08 06:52:04 51°14.684 2°52.491 252.9 5.3 258 11.4
2008-09-08 06:52:10 51°14.682 2°52.478 253 5.2 256 11.4
2008-09-08 06:52:14 51°14.68 2°52.469 252.9 5.2 256 11.4
2008-09-08 06:52:19 51°14.679 2°52.458 252.6 5.2 257 11.4
2008-09-08 06:52:24 51°14.677 2°52.446 252.8 5.2 255 11.4
2008-09-08 06:52:30 51°14.675 2°52.433 253.1 5.1 258 11.3
2008-09-08 06:52:34 51°14.673 2°52.424 252.9 5.1 256 11.3
2008-09-08 06:52:39 51°14.672 2°52.413 252.7 5.1 256 11.4
2008-09-08 06:52:44 51°14.67 2°52.402 252.2 5.1 253 11.4
2008-09-08 06:52:50 51°14.667 2°52.389 251.4 5.1 253 11.4
2008-09-08 06:52:54 51°14.666 2°52.38 250.7 5.2 255 11.4
2008-09-08 06:52:59 51°14.664 2°52.369 250.5 5.2 253 11.4
2008-09-08 06:53:04 51°14.661 2°52.358 250.2 5.2 253 11.5
2008-09-08 06:53:10 51°14.659 2°52.345 250.1 5.2 253 11.3
2008-09-08 06:53:14 51°14.657 2°52.336 249.8 5.2 253 11.3
2008-09-08 06:53:19 51°14.656 2°52.325 249.9 5.2 255 11.1
2008-09-08 06:53:24 51°14.653 2°52.315 249.7 5.2 254 11.3
2008-09-08 06:53:30 51°14.651 2°52.302 250 5.2 251 11.3
2008-09-08 06:53:34 51°14.649 2°52.293 249.7 5.2 254 11.4
2008-09-08 06:53:39 51°14.647 2°52.282 249.7 5.1 252 11.4
2008-09-08 06:53:44 51°14.645 2°52.271 249.4 5.2 253 11.4
2008-09-08 06:53:50 51°14.642 2°52.258 249.5 5.2 255 11.4
2008-09-08 06:53:54 51°14.641 2°52.249 250.1 5.2 253 11.4
2008-09-08 06:53:59 51°14.639 2°52.238 250.3 5.2 255 11.5
2008-09-08 06:54:04 51°14.637 2°52.227 250.7 5.2 254 11.4
2008-09-08 06:54:09 51°14.635 2°52.216 250.7 5.2 255 11.4
2008-09-08 06:54:14 51°14.633 2°52.205 250.6 5.2 254 11.6
2008-09-08 06:54:19 51°14.631 2°52.194 250.6 5.2 254 11.5
2008-09-08 06:54:24 51°14.629 2°52.183 250.1 5.2 252 11.4
2008-09-08 06:54:30 51°14.627 2°52.17 249.6 5.1 254 11.3
2008-09-08 06:54:34 51°14.625 2°52.161 248.9 5 251 11.3
2008-09-08 06:54:39 51°14.622 2°52.151 248.6 5 252 11.4
2008-09-08 06:54:44 51°14.62 2°52.14 248.5 5.1 251 11.5
2008-09-08 06:54:50 51°14.618 2°52.127 248.8 5.1 252 11.2
2008-09-08 06:54:54 51°14.616 2°52.119 248.9 5.1 254 11.4
2008-09-08 06:54:59 51°14.614 2°52.108 249.1 5.1 249 11.4
2008-09-08 06:55:04 51°14.612 2°52.097 249.3 5.1 253 11.3
2008-09-08 06:55:10 51°14.609 2°52.084 249 5.1 252 11.3
2008-09-08 06:55:14 51°14.608 2°52.075 249.4 5.1 254 11.4
2008-09-08 06:55:19 51°14.605 2°52.065 249.6 5.1 251 11.3
2008-09-08 06:55:24 51°14.604 2°52.053 249.6 5.1 255 11.3
2008-09-08 06:55:30 51°14.601 2°52.041 249.6 5.2 253 11.2
2008-09-08 06:55:34 51°14.599 2°52.032 249.8 5.2 254 11.3
2008-09-08 06:55:39 51°14.597 2°52.021 250.2 5.2 254 11.5
2008-09-08 06:55:44 51°14.595 2°52.01 250.3 5.2 255 11.4
2008-09-08 06:55:50 51°14.593 2°51.996 250.3 5.2 253 11.4
2008-09-08 06:55:54 51°14.592 2°51.987 250.4 5.2 254 11.3
2008-09-08 06:55:59 51°14.589 2°51.976 250.1 5.2 253 11.4
2008-09-08 06:56:04 51°14.588 2°51.966 249.9 5.2 255 11.4
2008-09-08 06:56:09 51°14.585 2°51.954 249.8 5.1 252 11.4
2008-09-08 06:56:14 51°14.583 2°51.943 249.6 5.1 253 11.3
2008-09-08 06:56:19 51°14.581 2°51.933 249.7 5.2 254 11.4
2008-09-08 06:56:24 51°14.579 2°51.921 249.6 5.2 253 11.4
2008-09-08 06:56:30 51°14.577 2°51.908 249.6 5.3 254 11.4
2008-09-08 06:56:34 51°14.575 2°51.899 249.6 5.3 253 11.2
2008-09-08 06:56:40 51°14.573 2°51.886 249.8 5.3 256 11.4
2008-09-08 06:56:44 51°14.571 2°51.877 250 5.2 254 11.4
2008-09-08 06:56:50 51°14.569 2°51.864 250.4 5.3 254 11.3
2008-09-08 06:56:54 51°14.567 2°51.855 250.5 5.2 255 11.3
2008-09-08 06:56:59 51°14.565 2°51.843 250.6 5.2 254 11.3
2008-09-08 06:57:04 51°14.564 2°51.832 250.6 5.3 255 11.5
2008-09-08 06:57:10 51°14.561 2°51.819 250.8 5.3 255 11.5
2008-09-08 06:57:14 51°14.56 2°51.81 250.5 5.2 256 11.4
2008-09-08 06:57:19 51°14.558 2°51.799 250.4 5.2 254 11.6
2008-09-08 06:57:24 51°14.556 2°51.788 250.4 5.2 253 11.4
2008-09-08 06:57:30 51°14.553 2°51.775 250.6 5.2 254 11.2
2008-09-08 06:57:34 51°14.552 2°51.766 250.5 5.1 254 11.3
2008-09-08 06:57:39 51°14.55 2°51.755 250.5 5.1 255 11.3
2008-09-08 06:57:44 51°14.548 2°51.744 250.4 5.1 253 11.3
2008-09-08 06:57:50 51°14.545 2°51.731 250.3 5.2 254 11.4
2008-09-08 06:57:54 51°14.544 2°51.722 250.4 5.3 255 11.3
2008-09-08 06:57:59 51°14.542 2°51.711 250.6 5.2 256 11.2
2008-09-08 06:58:04 51°14.541 2°51.7 251 5.2 256 11.3
2008-09-08 06:58:09 51°14.539 2°51.689 251.2 5.2 257 11.4
2008-09-08 06:58:14 51°14.537 2°51.677 251.4 5.2 254 11.4
2008-09-08 06:58:19 51°14.535 2°51.666 251.4 5.3 258 11.3
2008-09-08 06:58:24 51°14.533 2°51.655 251.2 5.2 256 11.3
2008-09-08 06:58:30 51°14.532 2°51.641 251.2 5.2 257 11.3
2008-09-08 06:58:34 51°14.53 2°51.633 250.7 5.2 255 11.4
2008-09-08 06:58:39 51°14.528 2°51.621 250.4 5.1 254 11.3
2008-09-08 06:58:44 51°14.526 2°51.61 250 5.2 253 11.3
2008-09-08 06:58:50 51°14.524 2°51.597 249.1 5.1 253 11.1
2008-09-08 06:58:54 51°14.521 2°51.589 247.7 5.1 249 11.1
2008-09-08 06:58:59 51°14.519 2°51.578 247.4 5.1 252 11.4
2008-09-08 06:59:04 51°14.517 2°51.568 246.5 5.2 251 11.3
2008-09-08 06:59:10 51°14.514 2°51.555 246.7 5.2 251 11.3
2008-09-08 06:59:14 51°14.512 2°51.546 246.7 5.2 249 11.3
2008-09-08 06:59:19 51°14.51 2°51.535 247 5.2 252 11.2
2008-09-08 06:59:24 51°14.507 2°51.525 246.9 5.3 252 11.4
2008-09-08 06:59:30 51°14.504 2°51.511 247.5 5.2 249 11.3
2008-09-08 06:59:34 51°14.502 2°51.503 247.4 5.3 252 11.3
2008-09-08 06:59:39 51°14.5 2°51.492 247.4 5.2 251 11.2
2008-09-08 06:59:44 51°14.497 2°51.481 247 5.2 251 11.3
2008-09-08 06:59:50 51°14.495 2°51.468 247.1 5.2 250 11.4
2008-09-08 06:59:54 51°14.493 2°51.459 247.1 5.2 250 11.2
2008-09-08 06:59:59 51°14.49 2°51.448 247.1 5.2 250 11.3
2008-09-08 07:00:04 51°14.488 2°51.438 247.1 5.3 252 11.3
2008-09-08 07:00:10 51°14.485 2°51.424 247.1 5.3 251 11.2
2008-09-08 07:00:14 51°14.483 2°51.416 247.2 5.3 252 11.2
2008-09-08 07:00:19 51°14.481 2°51.405 247.5 5.2 250 11.2
2008-09-08 07:00:24 51°14.479 2°51.394 247.7 5.2 250 11.4
2008-09-08 07:00:30 51°14.476 2°51.381 247.5 5.2 250 11.3
2008-09-08 07:00:34 51°14.474 2°51.372 247.3 5.1 249 11.2
2008-09-08 07:00:39 51°14.471 2°51.362 246.6 5.1 248 11.1
2008-09-08 07:00:44 51°14.469 2°51.351 246.1 5.2 249 11.2
2008-09-08 07:00:50 51°14.466 2°51.339 246.1 5.1 249 11.3
2008-09-08 07:00:54 51°14.464 2°51.33 246.6 5.1 248 11.1
2008-09-08 07:00:59 51°14.461 2°51.319 246.9 5.2 251 11.3
2008-09-08 07:01:04 51°14.459 2°51.309 247 5.1 249 11.3
2008-09-08 07:01:10 51°14.456 2°51.296 247 5.2 250 11.1
2008-09-08 07:01:14 51°14.454 2°51.287 247 5.1 251 11.1
2008-09-08 07:01:19 51°14.452 2°51.277 247 5.2 248 11.2
2008-09-08 07:01:24 51°14.449 2°51.266 246.8 5.2 251 11.2
2008-09-08 07:01:30 51°14.446 2°51.253 246.6 5.2 251 11.1
2008-09-08 07:01:34 51°14.445 2°51.244 247 5.2 250 11.1
2008-09-08 07:01:39 51°14.442 2°51.234 247.2 5.1 251 11.3
2008-09-08 07:01:44 51°14.44 2°51.223 247.1 5.1 250 11.2
2008-09-08 07:01:50 51°14.437 2°51.21 246.3 5.1 251 11.4
2008-09-08 07:01:54 51°14.435 2°51.202 246.8 5.1 250 11.2
2008-09-08 07:01:59 51°14.433 2°51.191 246.9 5.1 252 11.1
2008-09-08 07:02:04 51°14.43 2°51.181 246.9 5.1 251 11.2
2008-09-08 07:02:10 51°14.427 2°51.168 247.1 5.1 251 11.2
2008-09-08 07:02:14 51°14.425 2°51.159 247 5.1 251 11.2
2008-09-08 07:02:19 51°14.423 2°51.148 247.1 5.1 251 11.1
2008-09-08 07:02:24 51°14.421 2°51.137 247.3 5.2 251 11.2
2008-09-08 07:02:30 51°14.418 2°51.124 247.4 5.2 249 11.3
2008-09-08 07:02:34 51°14.416 2°51.116 247.5 5.2 252 11.2
2008-09-08 07:02:39 51°14.413 2°51.105 247.3 5.2 250 11.1
2008-09-08 07:02:44 51°14.411 2°51.094 247.4 5.3 253 11.2
2008-09-08 07:02:49 51°14.408 2°51.083 247.5 5.3 250 11.3
2008-09-08 07:02:54 51°14.406 2°51.071 247.7 5.3 253 11.1
2008-09-08 07:02:59 51°14.404 2°51.06 247.8 5.3 251 11.1
2008-09-08 07:03:04 51°14.402 2°51.049 248 5.3 251 11.2
2008-09-08 07:03:10 51°14.399 2°51.036 247.8 5.3 251 11.1
2008-09-08 07:03:14 51°14.397 2°51.027 247.8 5.3 253 11.2
2008-09-08 07:03:19 51°14.395 2°51.016 247.4 5.3 249 11.2
2008-09-08 07:03:24 51°14.392 2°51.005 247.4 5.3 251 11.1
2008-09-08 07:03:30 51°14.39 2°50.992 247 5.3 251 11.2
2008-09-08 07:03:34 51°14.387 2°50.983 246.7 5.2 250 11.3
2008-09-08 07:03:39 51°14.385 2°50.973 246.5 5.2 249 11.1
2008-09-08 07:03:44 51°14.382 2°50.962 245.6 5.2 251 11.2
2008-09-08 07:03:50 51°14.379 2°50.949 245.4 5.2 247 11.1
2008-09-08 07:03:54 51°14.377 2°50.941 245.1 5.2 249 11.1
2008-09-08 07:03:59 51°14.374 2°50.93 244.7 5.2 250 11.2
2008-09-08 07:04:04 51°14.372 2°50.92 244.9 5.2 247 11.3
2008-09-08 07:04:10 51°14.368 2°50.907 244.2 5.2 248 11.2
2008-09-08 07:04:14 51°14.366 2°50.899 244 5.1 245 11.3
2008-09-08 07:04:19 51°14.363 2°50.888 243.6 5.2 247 11.2
2008-09-08 07:04:24 51°14.36 2°50.878 243.9 5 244 11
2008-09-08 07:04:30 51°14.357 2°50.865 243.9 5.2 247 11
2008-09-08 07:04:34 51°14.354 2°50.857 243.5 5.1 246 11.2
2008-09-08 07:04:39 51°14.352 2°50.846 243.8 5.2 246 11.1
2008-09-08 07:04:44 51°14.349 2°50.836 243.7 5.2 248 11.1
2008-09-08 07:04:50 51°14.345 2°50.823 243.5 5.2 247 11.1
2008-09-08 07:04:54 51°14.343 2°50.815 243.9 5.2 247 11.3
2008-09-08 07:04:59 51°14.34 2°50.805 243.8 5.1 246 11
2008-09-08 07:05:04 51°14.337 2°50.794 243.3 5.1 247 11.1
2008-09-08 07:05:10 51°14.334 2°50.782 243.8 5.1 247 11.1
2008-09-08 07:05:14 51°14.332 2°50.774 244.2 5.1 246 11.2
2008-09-08 07:05:19 51°14.329 2°50.763 244.2 5.1 246 11.2
2008-09-08 07:05:24 51°14.326 2°50.753 244.2 5.1 246 11
2008-09-08 07:05:30 51°14.323 2°50.74 244 5.1 248 11
2008-09-08 07:05:34 51°14.321 2°50.732 244.4 5.1 246 11.1
2008-09-08 07:05:39 51°14.318 2°50.722 244.3 5.1 249 11.1
2008-09-08 07:05:44 51°14.315 2°50.712 244.2 5.1 247 11
2008-09-08 07:05:50 51°14.312 2°50.699 244.5 5 245 11.1
2008-09-08 07:05:54 51°14.31 2°50.691 243.7 5.1 248 11.1
2008-09-08 07:05:59 51°14.307 2°50.68 243.8 5.1 246 11
2008-09-08 07:06:04 51°14.304 2°50.67 244.3 5.1 249 11.1
2008-09-08 07:06:10 51°14.301 2°50.657 244.4 5.2 247 11.2
2008-09-08 07:06:14 51°14.299 2°50.649 244.8 5.1 248 11.2
2008-09-08 07:06:19 51°14.296 2°50.638 244.7 5.2 248 11.1
2008-09-08 07:06:24 51°14.294 2°50.627 244.6 5.2 250 11
2008-09-08 07:06:30 51°14.291 2°50.614 244.7 5.2 250 11.2
2008-09-08 07:06:34 51°14.288 2°50.606 244.8 5.2 248 11.2
2008-09-08 07:06:39 51°14.286 2°50.595 244.9 5.3 248 11.2
2008-09-08 07:06:44 51°14.283 2°50.584 244.5 5.3 249 11.1
2008-09-08 07:06:50 51°14.28 2°50.571 244.5 5.2 248 11
2008-09-08 07:06:54 51°14.278 2°50.563 244.5 5.2 248 11
2008-09-08 07:06:59 51°14.275 2°50.552 244.6 5.2 247 11.1
2008-09-08 07:07:04 51°14.272 2°50.541 244.5 5.2 249 11
2008-09-08 07:07:10 51°14.269 2°50.529 244.2 5.2 247 11.1
2008-09-08 07:07:14 51°14.267 2°50.52 244.6 5.3 250 11.1
2008-09-08 07:07:19 51°14.264 2°50.509 244.5 5.3 248 11.1
2008-09-08 07:07:24 51°14.261 2°50.498 244.4 5.3 247 11.1
2008-09-08 07:07:30 51°14.258 2°50.485 244.5 5.2 249 11.1
2008-09-08 07:07:34 51°14.256 2°50.477 244.5 5.2 246 11
2008-09-08 07:07:39 51°14.253 2°50.466 244.3 5.2 248 11
2008-09-08 07:07:44 51°14.25 2°50.456 243.9 5.3 247 11.1
2008-09-08 07:07:49 51°14.247 2°50.445 244 5.2 248 11.1
2008-09-08 07:07:54 51°14.244 2°50.435 244 5.2 244 10.9
2008-09-08 07:07:59 51°14.242 2°50.424 243.8 5.3 250 11.1
2008-09-08 07:08:04 51°14.239 2°50.413 243.9 5.2 243 11.2
2008-09-08 07:08:10 51°14.236 2°50.4 243.8 5.2 250 10.9
2008-09-08 07:08:14 51°14.233 2°50.392 243.6 5.3 246 11.1
2008-09-08 07:08:19 51°14.23 2°50.381 244 5.2 247 11
2008-09-08 07:08:24 51°14.227 2°50.371 244 5.3 245 11.1
2008-09-08 07:08:30 51°14.224 2°50.358 243.8 5.3 247 11.1
2008-09-08 07:08:34 51°14.221 2°50.349 243.6 5.3 245 11.1
2008-09-08 07:08:39 51°14.218 2°50.339 243.4 5.3 247 11
2008-09-08 07:08:44 51°14.216 2°50.328 243.7 5.3 247 11
2008-09-08 07:08:50 51°14.212 2°50.315 243.8 5.3 248 11
2008-09-08 07:08:54 51°14.21 2°50.307 244.1 5.3 247 11.1
2008-09-08 07:08:59 51°14.207 2°50.295 244.5 5.3 248 11
2008-09-08 07:09:05 51°14.204 2°50.283 244.4 5.1 247 10.8
2008-09-08 07:09:10 51°14.201 2°50.273 243.8 5.1 246 11.1
2008-09-08 07:09:14 51°14.199 2°50.265 244.3 5.1 248 11
2008-09-08 07:09:19 51°14.196 2°50.254 244.1 5.1 246 11.1
2008-09-08 07:09:24 51°14.193 2°50.244 244.1 5.1 248 11
2008-09-08 07:09:30 51°14.19 2°50.231 244.5 5.1 246 11.1
2008-09-08 07:09:34 51°14.188 2°50.223 244.5 5.1 249 11.1
2008-09-08 07:09:39 51°14.185 2°50.213 244.6 5.1 248 11.1
2008-09-08 07:09:44 51°14.182 2°50.202 244.6 5 247 11
2008-09-08 07:09:49 51°14.179 2°50.192 243.9 5.1 247 10.9
2008-09-08 07:09:54 51°14.177 2°50.181 244 5.1 248 10.8
2008-09-08 07:09:59 51°14.174 2°50.171 243.6 5.1 246 11.1
2008-09-08 07:10:04 51°14.171 2°50.16 244.3 5.2 246 11
2008-09-08 07:10:10 51°14.168 2°50.148 243.7 5.2 248 11
2008-09-08 07:10:14 51°14.165 2°50.139 244 5.2 246 10.9
2008-09-08 07:10:20 51°14.162 2°50.127 243.9 5.2 246 11.1
2008-09-08 07:10:24 51°14.16 2°50.118 243.9 5.2 247 11
2008-09-08 07:10:30 51°14.156 2°50.106 244.1 5.2 248 10.9
2008-09-08 07:10:34 51°14.154 2°50.097 243.8 5.2 246 11
2008-09-08 07:10:39 51°14.151 2°50.087 243.4 5.2 248 10.9
2008-09-08 07:10:44 51°14.148 2°50.076 243.8 5.2 244 10.9
2008-09-08 07:10:50 51°14.145 2°50.063 243.8 5.2 248 11
2008-09-08 07:10:54 51°14.142 2°50.055 243.8 5.2 246 11
2008-09-08 07:10:59 51°14.14 2°50.045 243.6 5.2 247 11
2008-09-08 07:11:05 51°14.136 2°50.032 243.8 5.2 246 10.9
2008-09-08 07:11:10 51°14.133 2°50.021 243.5 5.3 248 11
2008-09-08 07:11:14 51°14.131 2°50.013 244.1 5.2 244 10.8
2008-09-08 07:11:19 51°14.128 2°50.002 244 5.2 249 10.9
2008-09-08 07:11:24 51°14.125 2°49.992 244.4 5.2 246 10.9
2008-09-08 07:11:30 51°14.122 2°49.979 244.2 5.2 248 10.8
2008-09-08 07:11:34 51°14.12 2°49.971 243.8 5.2 246 10.9
2008-09-08 07:11:39 51°14.117 2°49.96 243.9 5.2 248 11
2008-09-08 07:11:44 51°14.114 2°49.949 243.8 5.2 248 10.9
2008-09-08 07:11:50 51°14.111 2°49.937 243.7 5.2 248 10.9
2008-09-08 07:11:54 51°14.109 2°49.928 244.1 5.2 247 10.8
2008-09-08 07:11:59 51°14.106 2°49.918 244.1 5.2 248 10.8
2008-09-08 07:12:04 51°14.103 2°49.907 244 5.2 247 10.9
2008-09-08 07:12:10 51°14.1 2°49.894 244.2 5.2 247 10.8
2008-09-08 07:12:14 51°14.097 2°49.886 243.8 5.3 248 10.8
2008-09-08 07:12:19 51°14.095 2°49.875 243.9 5.2 247 10.8
2008-09-08 07:12:24 51°14.092 2°49.865 244.2 5.3 249 10.9
2008-09-08 07:12:30 51°14.088 2°49.852 244.5 5.2 247 10.8
2008-09-08 07:12:34 51°14.086 2°49.843 244.2 5.2 247 10.8
2008-09-08 07:12:39 51°14.083 2°49.832 244.2 5.3 247 10.9
2008-09-08 07:12:44 51°14.08 2°49.822 243.7 5.2 245 10.7
2008-09-08 07:12:50 51°14.077 2°49.809 243.4 5.2 246 10.7
2008-09-08 07:12:54 51°14.075 2°49.801 243.5 5.3 249 10.8
2008-09-08 07:12:59 51°14.071 2°49.79 243.7 5.2 243 10.9
2008-09-08 07:13:05 51°14.069 2°49.778 243.8 5.2 249 10.8
2008-09-08 07:13:10 51°14.065 2°49.767 243.6 5.2 244 10.8
2008-09-08 07:13:14 51°14.064 2°49.759 244.2 5.1 248 10.8
2008-09-08 07:13:19 51°14.061 2°49.748 244.2 5.1 247 10.7
2008-09-08 07:13:24 51°14.058 2°49.738 244.5 5.2 249 10.9
2008-09-08 07:13:30 51°14.055 2°49.725 244.6 5.2 248 10.9
2008-09-08 07:13:34 51°14.053 2°49.716 244.7 5.1 250 10.8
2008-09-08 07:13:39 51°14.05 2°49.706 245 5.2 247 11.1
2008-09-08 07:13:44 51°14.047 2°49.695 245 5.2 248 10.9
2008-09-08 07:13:50 51°14.044 2°49.683 244.3 5.2 247 10.9
2008-09-08 07:13:54 51°14.042 2°49.674 244.3 5.2 248 11
2008-09-08 07:13:59 51°14.039 2°49.664 244.5 5.2 247 10.9
2008-09-08 07:14:04 51°14.037 2°49.654 244.4 5.1 248 10.9
2008-09-08 07:14:10 51°14.033 2°49.641 244.5 5.2 247 11.1
2008-09-08 07:14:14 51°14.031 2°49.633 244.7 5.1 247 10.9
2008-09-08 07:14:19 51°14.028 2°49.622 244.5 5.2 248 11
2008-09-08 07:14:24 51°14.026 2°49.611 244.5 5.2 248 10.9
2008-09-08 07:14:30 51°14.022 2°49.599 244.4 5.2 246 11
2008-09-08 07:14:34 51°14.02 2°49.59 244.7 5.2 250 10.9
2008-09-08 07:14:39 51°14.017 2°49.579 244.7 5.3 247 10.9
2008-09-08 07:14:44 51°14.015 2°49.569 245 5.2 248 10.8
2008-09-08 07:14:50 51°14.012 2°49.556 245.1 5.3 249 11
2008-09-08 07:14:54 51°14.009 2°49.547 245.3 5.3 247 11
2008-09-08 07:14:59 51°14.007 2°49.536 244.7 5.3 247 10.9
2008-09-08 07:15:05 51°14.003 2°49.523 244.5 5.3 248 10.8
2008-09-08 07:15:10 51°14.001 2°49.513 244.3 5.2 249 10.9
2008-09-08 07:15:14 51°13.998 2°49.505 244.5 5.2 245 11
2008-09-08 07:15:19 51°13.995 2°49.494 244.2 5.3 247 11
2008-09-08 07:15:24 51°13.993 2°49.483 243.9 5.1 245 10.8
2008-09-08 07:15:30 51°13.989 2°49.47 243.8 5.2 249 11.1
2008-09-08 07:15:34 51°13.987 2°49.462 244.5 5.2 245 11.1
2008-09-08 07:15:39 51°13.985 2°49.452 244.6 5.2 250 11
2008-09-08 07:15:45 51°13.981 2°49.439 244.4 5.2 248 11.1
2008-09-08 07:15:50 51°13.979 2°49.428 244.7 5.2 248 10.9
2008-09-08 07:15:54 51°13.976 2°49.42 244.6 5.2 248 11.1
2008-09-08 07:15:59 51°13.974 2°49.409 244.5 5.2 246 10.9
2008-09-08 07:16:04 51°13.971 2°49.399 243.9 5.2 246 11.1
2008-09-08 07:16:10 51°13.967 2°49.386 243.1 5.1 246 11.1
2008-09-08 07:16:14 51°13.965 2°49.378 242.3 5.1 245 11
2008-09-08 07:16:19 51°13.962 2°49.368 242 5.1 246 11
2008-09-08 07:16:24 51°13.959 2°49.358 241.7 5.1 245 11
2008-09-08 07:16:30 51°13.955 2°49.345 241.6 5.2 244 11.3
2008-09-08 07:16:34 51°13.953 2°49.337 241.2 5.2 244 11.2
2008-09-08 07:16:39 51°13.949 2°49.326 240.9 5.2 244 11
2008-09-08 07:16:44 51°13.946 2°49.316 240.9 5.3 244 11
2008-09-08 07:16:50 51°13.942 2°49.304 240.6 5.3 243 11.1
2008-09-08 07:16:54 51°13.94 2°49.295 240.5 5.3 245 11
2008-09-08 07:16:59 51°13.937 2°49.285 240.2 5.2 243 11
2008-09-08 07:17:04 51°13.934 2°49.275 239.9 5.2 244 11.2
2008-09-08 07:17:10 51°13.929 2°49.262 239.5 5.3 242 11.1
2008-09-08 07:17:14 51°13.927 2°49.254 239.9 5.3 243 10.9
2008-09-08 07:17:20 51°13.923 2°49.241 239.7 5.3 240 11.2
2008-09-08 07:17:24 51°13.92 2°49.233 240.2 5.2 242 10.9
2008-09-08 07:17:30 51°13.916 2°49.221 239.4 5.2 242 10.9
2008-09-08 07:17:34 51°13.913 2°49.213 239.7 5.1 241 10.9
2008-09-08 07:17:39 51°13.909 2°49.203 239.1 5.2 241 11
2008-09-08 07:17:45 51°13.905 2°49.191 239.3 5.1 243 10.9
2008-09-08 07:17:50 51°13.902 2°49.181 239.2 5.2 240 10.9
2008-09-08 07:17:54 51°13.899 2°49.173 239.3 5.1 242 10.9
2008-09-08 07:17:59 51°13.895 2°49.163 239.1 5.2 238 10.9
2008-09-08 07:18:04 51°13.893 2°49.153 239.6 5.1 243 10.8
2008-09-08 07:18:10 51°13.888 2°49.141 240 5.3 246 11.2
2008-09-08 07:18:14 51°13.886 2°49.132 240.5 5.2 244 11
2008-09-08 07:18:19 51°13.883 2°49.122 240.9 5.3 243 10.9
2008-09-08 07:18:24 51°13.879 2°49.111 240.9 5.2 245 10.9
2008-09-08 07:18:29 51°13.876 2°49.102 240.9 5.2 241 11
2008-09-08 07:18:34 51°13.873 2°49.091 241 5.2 245 11
2008-09-08 07:18:39 51°13.87 2°49.081 241 5.2 242 10.8
2008-09-08 07:18:44 51°13.867 2°49.07 240.6 5.2 244 10.9
2008-09-08 07:18:50 51°13.863 2°49.058 240.3 5.3 244 10.9
2008-09-08 07:18:54 51°13.86 2°49.05 240.8 5.2 244 11
2008-09-08 07:18:59 51°13.857 2°49.04 240.6 5.2 244 10.9
2008-09-08 07:19:04 51°13.854 2°49.029 240.8 5.2 243 11
2008-09-08 07:19:10 51°13.85 2°49.017 240.5 5.2 244 11
2008-09-08 07:19:14 51°13.847 2°49.008 240.5 5.1 240 10.8
2008-09-08 07:19:19 51°13.844 2°48.999 239.7 5.2 243 11
2008-09-08 07:19:24 51°13.84 2°48.989 239.4 5.2 239 11
2008-09-08 07:19:30 51°13.836 2°48.976 239.3 5.2 243 11.2
2008-09-08 07:19:34 51°13.834 2°48.969 239.6 5.2 239 11.2
2008-09-08 07:19:39 51°13.83 2°48.958 239.8 5.2 243 11
2008-09-08 07:19:44 51°13.827 2°48.948 239.6 5.2 241 11.2
2008-09-08 07:19:50 51°13.823 2°48.936 239.7 5.2 242 11.2
2008-09-08 07:19:54 51°13.82 2°48.928 239.8 5.2 244 11.2
2008-09-08 07:19:59 51°13.817 2°48.918 239.7 5.2 240 11.2
2008-09-08 07:20:04 51°13.814 2°48.908 240.1 5.2 243 11.3
2008-09-08 07:20:10 51°13.81 2°48.895 240.1 5.3 244 11.4
2008-09-08 07:20:14 51°13.807 2°48.887 240.4 5.3 244 11.4
2008-09-08 07:20:19 51°13.804 2°48.876 240.8 5.3 242 11.3
2008-09-08 07:20:24 51°13.801 2°48.866 240.8 5.4 246 11.5
2008-09-08 07:20:30 51°13.796 2°48.854 240.6 5.3 240 11.3
2008-09-08 07:20:34 51°13.794 2°48.845 240.8 5.2 245 11.6
2008-09-08 07:20:39 51°13.791 2°48.836 240.2 5.2 239 11.4
2008-09-08 07:20:44 51°13.788 2°48.825 240.7 5.2 243 11.4
2008-09-08 07:20:50 51°13.783 2°48.813 240 5.2 245 11.5
2008-09-08 07:20:54 51°13.781 2°48.805 240.1 5.1 241 11.3
2008-09-08 07:20:59 51°13.777 2°48.795 239.8 5.1 242 11.4
2008-09-08 07:21:04 51°13.774 2°48.785 239.9 5.2 243 11.4
2008-09-08 07:21:10 51°13.77 2°48.773 240.1 5.2 240 11.3
2008-09-08 07:21:14 51°13.767 2°48.764 240.4 5.2 244 11.4
2008-09-08 07:21:19 51°13.764 2°48.754 240.1 5.3 241 11.5
2008-09-08 07:21:24 51°13.761 2°48.744 240.4 5.2 243 11.4
2008-09-08 07:21:30 51°13.757 2°48.731 240.3 5.3 244 11.6
2008-09-08 07:21:34 51°13.754 2°48.723 240.4 5.2 243 11.4
2008-09-08 07:21:39 51°13.751 2°48.713 240 5.3 243 11.5
2008-09-08 07:21:44 51°13.747 2°48.702 240.1 5.3 243 11.6
2008-09-08 07:21:50 51°13.743 2°48.69 240.7 5.3 243 11.5
2008-09-08 07:21:54 51°13.741 2°48.681 240.2 5.3 244 11.4
2008-09-08 07:21:59 51°13.737 2°48.671 240.4 5.3 242 11.6
2008-09-08 07:22:04 51°13.734 2°48.66 240.3 5.3 243 11.3
2008-09-08 07:22:10 51°13.73 2°48.648 240.4 5.3 243 11.5
2008-09-08 07:22:14 51°13.728 2°48.64 240.3 5.2 243 11.7
2008-09-08 07:22:19 51°13.724 2°48.63 240.2 5.3 240 11.5
2008-09-08 07:22:24 51°13.721 2°48.619 240.3 5.2 243 11.3
2008-09-08 07:22:30 51°13.717 2°48.607 239.7 5.2 242 11.4
2008-09-08 07:22:34 51°13.714 2°48.599 240.1 5.2 243 11.4
2008-09-08 07:22:39 51°13.711 2°48.589 240.1 5.2 243 11.5
2008-09-08 07:22:44 51°13.707 2°48.579 240.4 5.2 242 11.5
2008-09-08 07:22:50 51°13.704 2°48.566 240.6 5.3 243 11.6
2008-09-08 07:22:54 51°13.701 2°48.558 240 5.2 244 11.4
2008-09-08 07:22:59 51°13.698 2°48.547 240.4 5.2 243 11.5
2008-09-08 07:23:04 51°13.694 2°48.537 240.1 5.3 243 11.7
2008-09-08 07:23:10 51°13.691 2°48.525 240.5 5.3 243 11.5
2008-09-08 07:23:14 51°13.688 2°48.516 240.5 5.3 244 11.6
2008-09-08 07:23:19 51°13.684 2°48.506 240 5.3 241 11.5
2008-09-08 07:23:24 51°13.681 2°48.496 239.8 5.3 244 11.5
2008-09-08 07:23:29 51°13.678 2°48.485 239.9 5.2 241 11.4
2008-09-08 07:23:34 51°13.674 2°48.475 239.7 5.4 244 11.6
2008-09-08 07:23:39 51°13.671 2°48.464 240.1 5.2 241 11.5
2008-09-08 07:23:44 51°13.667 2°48.454 239.7 5.2 242 11.5
2008-09-08 07:23:50 51°13.663 2°48.442 239.5 5.3 241 11.3
2008-09-08 07:23:54 51°13.66 2°48.434 239.2 5.2 243 11.2
2008-09-08 07:23:59 51°13.657 2°48.424 239.4 5.3 240 11.4
2008-09-08 07:24:04 51°13.654 2°48.413 240.1 5.3 244 11.4
2008-09-08 07:24:10 51°13.65 2°48.401 239.4 5.3 243 11.6
2008-09-08 07:24:14 51°13.647 2°48.393 240.5 5.2 241 11.3
2008-09-08 07:24:19 51°13.644 2°48.382 240 5.3 246 11.5
2008-09-08 07:24:24 51°13.641 2°48.372 240.2 5.3 241 11.5
2008-09-08 07:24:30 51°13.637 2°48.359 240.7 5.2 244 11.3
2008-09-08 07:24:34 51°13.634 2°48.351 239.8 5.3 241 11.4
2008-09-08 07:24:39 51°13.631 2°48.341 240.1 5.3 243 11.7
2008-09-08 07:24:45 51°13.626 2°48.329 239.8 5.2 242 11.8
2008-09-08 07:24:50 51°13.623 2°48.319 239.6 5.2 242 11.4
2008-09-08 07:24:54 51°13.62 2°48.311 239.9 5.3 243 11.5
2008-09-08 07:24:59 51°13.617 2°48.3 239.6 5.2 244 11.3
2008-09-08 07:25:04 51°13.614 2°48.29 240.1 5.2 243 11.3
2008-09-08 07:25:10 51°13.61 2°48.277 239.9 5.3 244 11.4
2008-09-08 07:25:14 51°13.607 2°48.269 240 5.2 242 11.2
2008-09-08 07:25:19 51°13.604 2°48.259 239.7 5.3 243 11.4
2008-09-08 07:25:24 51°13.6 2°48.249 239.9 5.3 241 11.3
2008-09-08 07:25:30 51°13.596 2°48.236 239.5 5.3 243 11.2
2008-09-08 07:25:34 51°13.593 2°48.228 239.5 5.2 241 11.3
2008-09-08 07:25:39 51°13.59 2°48.218 239.4 5.3 243 11.3
2008-09-08 07:25:44 51°13.586 2°48.207 239.6 5.3 242 11.2
2008-09-08 07:25:50 51°13.582 2°48.195 240.1 5.3 243 11.4
2008-09-08 07:25:54 51°13.58 2°48.186 240.1 5.3 242 11.5
2008-09-08 07:26:00 51°13.576 2°48.174 240.9 5.3 244 11.6
2008-09-08 07:26:04 51°13.573 2°48.166 240.9 5.2 242 11.5
2008-09-08 07:26:10 51°13.569 2°48.153 241.2 5.3 243 11.6
2008-09-08 07:26:14 51°13.567 2°48.145 240.9 5.2 242 11.8
2008-09-08 07:26:19 51°13.563 2°48.135 240.3 5.2 241 11.6
2008-09-08 07:26:24 51°13.56 2°48.125 240.3 5.2 244 11.7
2008-09-08 07:26:30 51°13.556 2°48.112 240.6 5.2 244 11.9
2008-09-08 07:26:34 51°13.554 2°48.104 241.2 5.2 244 11.7
2008-09-08 07:26:39 51°13.551 2°48.094 241 5.2 245 11.8
2008-09-08 07:26:45 51°13.546 2°48.082 240.9 5.2 241 11.9
2008-09-08 07:26:50 51°13.543 2°48.072 241.1 5.1 243 11.8
2008-09-08 07:26:54 51°13.541 2°48.063 240 5.2 245 11.6
2008-09-08 07:26:59 51°13.538 2°48.053 241.1 5.2 242 11.8
2008-09-08 07:27:04 51°13.534 2°48.043 240.9 5.2 246 11.7
2008-09-08 07:27:10 51°13.53 2°48.031 240.8 5.1 241 11.8
2008-09-08 07:27:14 51°13.528 2°48.023 240.1 5.3 243 11.8
2008-09-08 07:27:19 51°13.524 2°48.013 239.5 5.2 241 11.8
2008-09-08 07:27:24 51°13.521 2°48.003 239.2 5.1 239 11.7
2008-09-08 07:27:30 51°13.516 2°47.991 238.1 5.1 240 11.6
2008-09-08 07:27:34 51°13.513 2°47.983 238 5.2 240 11.7
2008-09-08 07:27:39 51°13.51 2°47.973 238.1 5.3 240 11.7
2008-09-08 07:27:44 51°13.506 2°47.963 238.3 5.1 240 11.6
2008-09-08 07:27:50 51°13.502 2°47.951 237.9 5.1 242 11.5
2008-09-08 07:27:54 51°13.5 2°47.943 238.8 5.1 241 11.6
2008-09-08 07:27:59 51°13.496 2°47.933 239 5.1 242 11.6
2008-09-08 07:28:04 51°13.493 2°47.923 239.5 5.1 242 11.5
2008-09-08 07:28:10 51°13.488 2°47.911 239.4 5.3 243 11.8
2008-09-08 07:28:14 51°13.486 2°47.903 239.6 5.2 241 11.8
2008-09-08 07:28:19 51°13.482 2°47.893 239.2 5.2 240 11.7
2008-09-08 07:28:24 51°13.479 2°47.882 238.9 5.2 240 11.7
2008-09-08 07:28:30 51°13.475 2°47.87 238.6 5.2 241 11.6
2008-09-08 07:28:34 51°13.472 2°47.862 238.3 5.2 240 11.6
2008-09-08 07:28:39 51°13.469 2°47.852 238.1 5.2 244 11.8
2008-09-08 07:28:45 51°13.464 2°47.84 238.5 5.3 241 11.7
2008-09-08 07:28:50 51°13.462 2°47.829 240.9 5.2 247 11.5
2008-09-08 07:28:54 51°13.459 2°47.82 243.1 5.2 247 11.6
2008-09-08 07:28:59 51°13.457 2°47.81 245.3 5.2 250 11.7
2008-09-08 07:29:04 51°13.455 2°47.799 247.1 5.3 253 11.6
2008-09-08 07:29:10 51°13.452 2°47.785 249.1 5.3 254 11.6
2008-09-08 07:29:14 51°13.451 2°47.776 251.6 5.2 257 11.4
2008-09-08 07:29:19 51°13.449 2°47.765 253.8 5.2 257 11.7
2008-09-08 07:29:25 51°13.448 2°47.751 256 5.3 264 11.6
2008-09-08 07:29:30 51°13.447 2°47.74 257.6 5.3 262 11.6
2008-09-08 07:29:34 51°13.447 2°47.73 260.7 5.2 269 11.5
2008-09-08 07:29:39 51°13.446 2°47.719 263.4 5.3 269 11.8
2008-09-08 07:29:44 51°13.447 2°47.707 266.4 5.4 275 11.7
2008-09-08 07:29:50 51°13.448 2°47.693 269.2 5.4 276 11.7
2008-09-08 07:29:54 51°13.449 2°47.684 272.1 5.4 281 11.7
2008-09-08 07:29:59 51°13.451 2°47.672 275.6 5.5 282 11.7
2008-09-08 07:30:04 51°13.453 2°47.66 278.6 5.4 286 11.6
2008-09-08 07:30:10 51°13.456 2°47.646 280.9 5.5 288 11.9
2008-09-08 07:30:14 51°13.458 2°47.637 282.7 5.6 289 11.9
2008-09-08 07:30:19 51°13.461 2°47.626 285.1 5.6 293 12
2008-09-08 07:30:24 51°13.464 2°47.615 288.7 5.6 297 12.1
2008-09-08 07:30:30 51°13.468 2°47.602 291.8 5.5 299 12.2
2008-09-08 07:30:34 51°13.472 2°47.593 294.7 5.5 303 11.9
2008-09-08 07:30:39 51°13.476 2°47.583 297.2 5.5 305 12.3
2008-09-08 07:30:45 51°13.482 2°47.572 299.4 5.6 306 12.2
2008-09-08 07:30:50 51°13.486 2°47.562 301.4 5.6 308 12.4
2008-09-08 07:30:54 51°13.491 2°47.554 303.3 5.7 310 12.5
2008-09-08 07:31:00 51°13.497 2°47.543 305.3 5.8 311 12.5
2008-09-08 07:31:04 51°13.501 2°47.535 306.7 5.8 313 12.4
2008-09-08 07:31:10 51°13.508 2°47.524 307.7 5.8 313 12.4
2008-09-08 07:31:14 51°13.512 2°47.517 308.8 5.8 315 12.2
2008-09-08 07:31:19 51°13.518 2°47.508 309.4 5.8 316 12.3
2008-09-08 07:31:24 51°13.524 2°47.499 310.2 5.9 317 12.6
2008-09-08 07:31:30 51°13.531 2°47.488 310.9 5.9 317 12.2
2008-09-08 07:31:34 51°13.536 2°47.481 311.9 6 317 12.7
2008-09-08 07:31:39 51°13.542 2°47.472 312.2 6 316 12.5
2008-09-08 07:31:45 51°13.549 2°47.461 311.8 5.9 316 12.3
2008-09-08 07:31:50 51°13.555 2°47.452 311.3 6 316 12.6
2008-09-08 07:31:54 51°13.56 2°47.445 311.3 5.9 317 12.4
2008-09-08 07:31:59 51°13.566 2°47.436 311 6 316 12.6
2008-09-08 07:32:04 51°13.572 2°47.427 310.8 6 317 12.7
2008-09-08 07:32:10 51°13.579 2°47.415 310.5 6.1 315 12.6
2008-09-08 07:32:14 51°13.584 2°47.408 310.4 6.1 315 12.7
2008-09-08 07:32:19 51°13.59 2°47.398 310.2 6.1 316 12.7
2008-09-08 07:32:24 51°13.596 2°47.389 309.9 6 315 12.4
2008-09-08 07:32:30 51°13.603 2°47.378 309.6 6 314 12.5
2008-09-08 07:32:34 51°13.608 2°47.37 309.4 6 315 12.6
2008-09-08 07:32:39 51°13.614 2°47.361 309.1 6.1 314 12.7
2008-09-08 07:32:44 51°13.62 2°47.351 309.3 6 315 12.7
2008-09-08 07:32:50 51°13.626 2°47.34 309.6 6 315 12.6
2008-09-08 07:32:54 51°13.631 2°47.332 309.5 6 315 12.4
2008-09-08 07:33:00 51°13.638 2°47.321 308.9 6 313 12.5
2008-09-08 07:33:04 51°13.643 2°47.313 308.6 5.9 313 12.6
2008-09-08 07:33:10 51°13.649 2°47.302 308.6 6 314 12.7
2008-09-08 07:33:14 51°13.654 2°47.294 308.6 6 314 12.7
2008-09-08 07:33:19 51°13.66 2°47.284 308.4 6.1 314 12.6
2008-09-08 07:33:24 51°13.666 2°47.275 308.3 6 314 12.7
2008-09-08 07:33:30 51°13.673 2°47.263 308.4 6 314 12.8
2008-09-08 07:33:34 51°13.677 2°47.256 308.8 6.1 314 12.6
2008-09-08 07:33:39 51°13.683 2°47.246 308.8 6 313 12.7
2008-09-08 07:33:45 51°13.69 2°47.235 308.8 6 314 12.8
2008-09-08 07:33:50 51°13.696 2°47.225 308.6 6.1 313 12.9
2008-09-08 07:33:54 51°13.7 2°47.217 308.4 6 314 12.8
2008-09-08 07:33:59 51°13.706 2°47.208 308.2 6 313 12.8
2008-09-08 07:34:04 51°13.712 2°47.198 307.7 6 313 12.8
2008-09-08 07:34:10 51°13.719 2°47.186 307.7 6.1 313 13
2008-09-08 07:34:14 51°13.723 2°47.178 307.7 6.1 313 13
2008-09-08 07:34:19 51°13.729 2°47.169 308 6 313 12.9
2008-09-08 07:34:24 51°13.734 2°47.159 307.7 6 312 12.9
2008-09-08 07:34:30 51°13.741 2°47.147 307.6 6.1 313 12.9
2008-09-08 07:34:34 51°13.746 2°47.139 307 6.1 312 12.8
2008-09-08 07:34:39 51°13.752 2°47.129 306.9 6.1 312 12.7
2008-09-08 07:34:44 51°13.757 2°47.119 307 6.1 312 12.7
2008-09-08 07:34:50 51°13.764 2°47.108 307 6.1 311 12.8
2008-09-08 07:34:54 51°13.768 2°47.1 306.9 6.1 313 12.7
2008-09-08 07:35:00 51°13.775 2°47.088 306.8 6.1 313 12.6
2008-09-08 07:35:04 51°13.78 2°47.08 307.8 6.1 315 12.6
2008-09-08 07:35:10 51°13.787 2°47.069 310.1 6.1 316 12.4
2008-09-08 07:35:15 51°13.794 2°47.061 312.4 6.1 319 11.5
2008-09-08 07:35:19 51°13.799 2°47.054 315.3 6.1 322 11.6
2008-09-08 07:35:24 51°13.806 2°47.046 317.4 6.1 323 11.3
2008-09-08 07:35:30 51°13.814 2°47.037 319.3 6.1 324 11.4
2008-09-08 07:35:34 51°13.82 2°47.031 320.7 6.1 326 11.3
2008-09-08 07:35:40 51°13.828 2°47.022 321.5 6.1 327 10.9
2008-09-08 07:35:44 51°13.834 2°47.016 322.2 6.1 329 11.5
2008-09-08 07:35:50 51°13.843 2°47.008 323.8 6 332 12.1
2008-09-08 07:35:54 51°13.849 2°47.004 327 6 334 12.2
2008-09-08 07:35:59 51°13.857 2°46.998 329 6.1 334 12.2
2008-09-08 07:36:04 51°13.864 2°46.992 330.6 6.1 336 12.2
2008-09-08 07:36:10 51°13.874 2°46.986 331.8 6.2 337 12.2
2008-09-08 07:36:14 51°13.88 2°46.982 333 6.2 339 12.2
2008-09-08 07:36:19 51°13.888 2°46.977 334.7 6.2 340 12.1
2008-09-08 07:36:24 51°13.896 2°46.973 335.5 6.1 341 11.9
2008-09-08 07:36:30 51°13.906 2°46.967 336.4 6.2 340 12.2
2008-09-08 07:36:34 51°13.912 2°46.964 336.4 6.2 341 11.9
2008-09-08 07:36:39 51°13.92 2°46.959 336.7 6.2 341 11.8
2008-09-08 07:36:44 51°13.929 2°46.955 336.5 6.2 342 11.6
2008-09-08 07:36:50 51°13.938 2°46.95 336.5 6.1 342 11.5
2008-09-08 07:36:54 51°13.945 2°46.946 336.7 6.1 342 11.4
2008-09-08 07:36:59 51°13.953 2°46.942 336.6 6.1 341 11.4
2008-09-08 07:37:04 51°13.96 2°46.938 336.6 6.1 342 11.3
2008-09-08 07:37:10 51°13.97 2°46.932 336.4 6.1 341 11.1
2008-09-08 07:37:14 51°13.976 2°46.929 336.2 6.1 340 10.9
2008-09-08 07:37:19 51°13.984 2°46.924 335.8 6.1 341 10.6
2008-09-08 07:37:24 51°13.992 2°46.92 335.6 6 341 10.5
2008-09-08 07:37:30 51°14.001 2°46.914 335.2 6.1 340 10.4
2008-09-08 07:37:34 51°14.008 2°46.911 335.4 6.1 340 10.5
2008-09-08 07:37:40 51°14.017 2°46.905 335.2 6 339 10.6
2008-09-08 07:37:44 51°14.024 2°46.902 335 6.1 340 10.6
2008-09-08 07:37:50 51°14.033 2°46.896 335 6.1 340 10.8
2008-09-08 07:37:54 51°14.039 2°46.892 334.8 6.1 339 10.6
2008-09-08 07:37:59 51°14.047 2°46.887 334.7 6 339 10.5
2008-09-08 07:38:04 51°14.055 2°46.883 334.7 6.1 339 10.8
2008-09-08 07:38:10 51°14.065 2°46.877 334.6 6.1 339 10.4
2008-09-08 07:38:14 51°14.071 2°46.873 334.6 6.2 340 10.4
2008-09-08 07:38:19 51°14.079 2°46.868 334.8 6.1 338 10.5
2008-09-08 07:38:25 51°14.088 2°46.863 334.9 6 341 10.5
2008-09-08 07:38:30 51°14.096 2°46.858 335.2 5.9 340 9.9
2008-09-08 07:38:34 51°14.102 2°46.855 335.4 5.9 340 10
2008-09-08 07:38:39 51°14.11 2°46.85 335.6 6 339 10.1
2008-09-08 07:38:44 51°14.118 2°46.846 335.2 6 340 10.2
2008-09-08 07:38:50 51°14.127 2°46.84 335.2 6 340 10.2
2008-09-08 07:38:54 51°14.134 2°46.837 335 6.1 341 10.1
2008-09-08 07:38:59 51°14.142 2°46.832 335.1 6.1 340 10.2
2008-09-08 07:39:04 51°14.149 2°46.828 334.8 6 340 10.3
2008-09-08 07:39:09 51°14.157 2°46.823 334.7 6 339 10.2
2008-09-08 07:39:14 51°14.165 2°46.818 334.1 6.1 339 10.2
2008-09-08 07:39:19 51°14.173 2°46.813 333.8 6.1 339 10.5
2008-09-08 07:39:24 51°14.181 2°46.808 333.7 6.2 340 10.8
2008-09-08 07:39:30 51°14.19 2°46.803 333.8 6 341 10.4
2008-09-08 07:39:34 51°14.197 2°46.8 334.8 6 341 10.5
2008-09-08 07:39:39 51°14.205 2°46.796 335.4 6 341 10.9
2008-09-08 07:39:44 51°14.212 2°46.791 335.8 6 341 10.9
2008-09-08 07:39:50 51°14.222 2°46.786 335.3 6 340 10.9
2008-09-08 07:39:54 51°14.228 2°46.782 334.5 6.1 339 10.7
2008-09-08 07:39:59 51°14.236 2°46.777 334.1 6.1 339 10.9
2008-09-08 07:40:04 51°14.244 2°46.772 334.1 6.1 339 11
2008-09-08 07:40:10 51°14.253 2°46.766 333.9 6 339 10.8
2008-09-08 07:40:14 51°14.26 2°46.763 333.8 6.1 339 11.1
2008-09-08 07:40:19 51°14.268 2°46.757 333.3 6 338 11.6
2008-09-08 07:40:25 51°14.277 2°46.752 333.2 6.1 339 11.6
2008-09-08 07:40:30 51°14.285 2°46.746 333.4 6.1 338 11.8
2008-09-08 07:40:34 51°14.291 2°46.742 333.1 6.1 338 12
2008-09-08 07:40:39 51°14.299 2°46.738 333.2 6.1 339 12
2008-09-08 07:40:44 51°14.307 2°46.733 333.7 6 339 12.1
2008-09-08 07:40:50 51°14.316 2°46.727 333.5 6.1 338 12